sensor_id;sensor_type;location;lat;lon;timestamp;P1;durP1;ratioP1;P2;durP2;ratioP2
55220;SDS011;41089;51.448;6.604;2023-01-04T00:01:40;8.77;;;1.95;;
55220;SDS011;41089;51.448;6.604;2023-01-04T00:07:42;5.45;;;1.98;;
55220;SDS011;41089;51.448;6.604;2023-01-04T00:13:42;6.63;;;1.67;;
55220;SDS011;41089;51.448;6.604;2023-01-04T00:19:43;4.43;;;1.40;;
55220;SDS011;41089;51.448;6.604;2023-01-04T00:25:44;10.55;;;1.90;;
55220;SDS011;41089;51.448;6.604;2023-01-04T00:31:44;7.47;;;1.20;;
55220;SDS011;41089;51.448;6.604;2023-01-04T00:37:45;6.63;;;2.72;;
55220;SDS011;41089;51.448;6.604;2023-01-04T00:43:46;7.07;;;1.70;;
55220;SDS011;41089;51.448;6.604;2023-01-04T00:49:46;4.67;;;1.37;;
55220;SDS011;41089;51.448;6.604;2023-01-04T00:55:47;6.32;;;2.40;;
55220;SDS011;41089;51.448;6.604;2023-01-04T01:01:47;6.97;;;2.33;;
55220;SDS011;41089;51.448;6.604;2023-01-04T01:07:50;4.13;;;1.48;;
55220;SDS011;41089;51.448;6.604;2023-01-04T01:13:50;6.28;;;1.45;;
55220;SDS011;41089;51.448;6.604;2023-01-04T01:19:51;3.53;;;1.95;;
55220;SDS011;41089;51.448;6.604;2023-01-04T01:25:53;5.75;;;1.67;;
55220;SDS011;41089;51.448;6.604;2023-01-04T01:31:53;4.18;;;1.63;;
55220;SDS011;41089;51.448;6.604;2023-01-04T01:37:54;5.22;;;1.35;;
55220;SDS011;41089;51.448;6.604;2023-01-04T01:43:56;5.80;;;1.38;;
55220;SDS011;41089;51.448;6.604;2023-01-04T01:49:58;5.70;;;1.60;;
55220;SDS011;41089;51.448;6.604;2023-01-04T01:56:00;9.50;;;2.05;;
55220;SDS011;41089;51.448;6.604;2023-01-04T02:02:02;4.18;;;1.20;;
55220;SDS011;41089;51.448;6.604;2023-01-04T02:08:02;4.07;;;1.42;;
55220;SDS011;41089;51.448;6.604;2023-01-04T02:14:04;6.72;;;1.67;;
55220;SDS011;41089;51.448;6.604;2023-01-04T02:26:43;5.15;;;1.60;;
55220;SDS011;41089;51.448;6.604;2023-01-04T02:51:41;10.25;;;1.50;;
55220;SDS011;41089;51.448;6.604;2023-01-04T02:57:44;5.60;;;1.65;;
55220;SDS011;41089;51.448;6.604;2023-01-04T03:16:29;1.98;;;1.13;;
55220;SDS011;41089;51.448;6.604;2023-01-04T03:28:52;2.47;;;0.80;;
55220;SDS011;41089;51.448;6.604;2023-01-04T03:35:13;2.53;;;0.93;;
55220;SDS011;41089;51.448;6.604;2023-01-04T03:41:36;2.20;;;0.63;;
55220;SDS011;41089;51.448;6.604;2023-01-04T03:48:08;1.50;;;0.90;;
55220;SDS011;41089;51.448;6.604;2023-01-04T03:54:35;2.20;;;0.70;;
55220;SDS011;41089;51.448;6.604;2023-01-04T04:00:38;2.40;;;1.00;;
55220;SDS011;41089;51.448;6.604;2023-01-04T04:06:39;1.60;;;0.57;;
55220;SDS011;41089;51.448;6.604;2023-01-04T04:12:58;1.52;;;0.57;;
55220;SDS011;41089;51.448;6.604;2023-01-04T04:18:58;1.48;;;0.65;;
55220;SDS011;41089;51.448;6.604;2023-01-04T04:24:59;1.83;;;0.70;;
55220;SDS011;41089;51.448;6.604;2023-01-04T04:30:59;1.10;;;0.60;;
55220;SDS011;41089;51.448;6.604;2023-01-04T04:37:00;0.40;;;0.30;;
55220;SDS011;41089;51.448;6.604;2023-01-04T04:43:00;1.10;;;0.60;;
55220;SDS011;41089;51.448;6.604;2023-01-04T04:49:01;1.02;;;0.50;;
55220;SDS011;41089;51.448;6.604;2023-01-04T04:55:01;1.45;;;0.52;;
55220;SDS011;41089;51.448;6.604;2023-01-04T05:01:02;1.37;;;0.50;;
55220;SDS011;41089;51.448;6.604;2023-01-04T05:07:03;2.75;;;0.57;;
55220;SDS011;41089;51.448;6.604;2023-01-04T05:13:03;1.85;;;0.73;;
55220;SDS011;41089;51.448;6.604;2023-01-04T05:19:06;0.95;;;0.40;;
55220;SDS011;41089;51.448;6.604;2023-01-04T05:25:07;0.82;;;0.68;;
55220;SDS011;41089;51.448;6.604;2023-01-04T05:31:20;0.95;;;0.52;;
55220;SDS011;41089;51.448;6.604;2023-01-04T05:37:21;0.60;;;0.57;;
55220;SDS011;41089;51.448;6.604;2023-01-04T05:43:22;0.70;;;0.60;;
55220;SDS011;41089;51.448;6.604;2023-01-04T05:49:23;1.42;;;0.55;;
55220;SDS011;41089;51.448;6.604;2023-01-04T05:55:23;1.87;;;0.80;;
55220;SDS011;41089;51.448;6.604;2023-01-04T06:01:24;0.95;;;0.55;;
55220;SDS011;41089;51.448;6.604;2023-01-04T06:07:24;1.23;;;0.68;;
55220;SDS011;41089;51.448;6.604;2023-01-04T06:13:26;3.40;;;1.40;;
55220;SDS011;41089;51.448;6.604;2023-01-04T06:19:26;2.92;;;1.30;;
55220;SDS011;41089;51.448;6.604;2023-01-04T06:25:27;0.60;;;0.60;;
55220;SDS011;41089;51.448;6.604;2023-01-04T06:31:27;2.75;;;0.85;;
55220;SDS011;41089;51.448;6.604;2023-01-04T06:37:28;1.52;;;0.60;;
55220;SDS011;41089;51.448;6.604;2023-01-04T06:43:29;2.88;;;0.90;;
55220;SDS011;41089;51.448;6.604;2023-01-04T06:49:29;1.35;;;0.60;;
55220;SDS011;41089;51.448;6.604;2023-01-04T06:55:30;1.50;;;0.67;;
55220;SDS011;41089;51.448;6.604;2023-01-04T07:01:30;1.33;;;0.90;;
55220;SDS011;41089;51.448;6.604;2023-01-04T07:07:31;2.58;;;0.70;;
55220;SDS011;41089;51.448;6.604;2023-01-04T07:13:32;4.13;;;0.68;;
55220;SDS011;41089;51.448;6.604;2023-01-04T07:19:33;1.38;;;0.93;;
55220;SDS011;41089;51.448;6.604;2023-01-04T07:25:33;1.55;;;0.60;;
55220;SDS011;41089;51.448;6.604;2023-01-04T07:31:34;2.25;;;0.80;;
55220;SDS011;41089;51.448;6.604;2023-01-04T07:37:34;1.85;;;0.75;;
55220;SDS011;41089;51.448;6.604;2023-01-04T07:43:35;1.38;;;0.80;;
55220;SDS011;41089;51.448;6.604;2023-01-04T07:49:35;2.00;;;0.90;;
55220;SDS011;41089;51.448;6.604;2023-01-04T07:55:36;3.10;;;0.60;;
55220;SDS011;41089;51.448;6.604;2023-01-04T08:01:37;2.73;;;0.70;;
55220;SDS011;41089;51.448;6.604;2023-01-04T08:07:38;1.38;;;0.50;;
55220;SDS011;41089;51.448;6.604;2023-01-04T08:13:39;1.50;;;0.70;;
55220;SDS011;41089;51.448;6.604;2023-01-04T08:19:40;7.00;;;1.77;;
55220;SDS011;41089;51.448;6.604;2023-01-04T08:25:41;0.75;;;0.43;;
55220;SDS011;41089;51.448;6.604;2023-01-04T08:31:41;1.80;;;1.00;;
55220;SDS011;41089;51.448;6.604;2023-01-04T08:37:42;2.67;;;0.93;;
55220;SDS011;41089;51.448;6.604;2023-01-04T08:43:42;1.98;;;0.70;;
55220;SDS011;41089;51.448;6.604;2023-01-04T08:49:43;2.08;;;0.88;;
55220;SDS011;41089;51.448;6.604;2023-01-04T08:55:50;2.67;;;0.80;;
55220;SDS011;41089;51.448;6.604;2023-01-04T09:01:51;1.60;;;0.80;;
55220;SDS011;41089;51.448;6.604;2023-01-04T09:07:51;2.40;;;1.20;;
55220;SDS011;41089;51.448;6.604;2023-01-04T09:13:55;1.87;;;0.80;;
55220;SDS011;41089;51.448;6.604;2023-01-04T09:19:57;1.83;;;1.65;;
55220;SDS011;41089;51.448;6.604;2023-01-04T09:25:57;1.77;;;1.20;;
55220;SDS011;41089;51.448;6.604;2023-01-04T09:31:58;2.58;;;1.42;;
55220;SDS011;41089;51.448;6.604;2023-01-04T09:37:58;6.90;;;1.20;;
55220;SDS011;41089;51.448;6.604;2023-01-04T09:50:58;2.17;;;0.93;;
55220;SDS011;41089;51.448;6.604;2023-01-04T09:57:00;2.47;;;0.88;;
55220;SDS011;41089;51.448;6.604;2023-01-04T10:09:14;1.02;;;0.95;;
55220;SDS011;41089;51.448;6.604;2023-01-04T10:15:35;2.28;;;0.93;;
55220;SDS011;41089;51.448;6.604;2023-01-04T10:21:50;2.88;;;1.13;;
55220;SDS011;41089;51.448;6.604;2023-01-04T10:34:40;1.65;;;0.88;;
55220;SDS011;41089;51.448;6.604;2023-01-04T10:40:43;2.33;;;1.02;;
55220;SDS011;41089;51.448;6.604;2023-01-04T10:52:55;4.38;;;1.15;;
55220;SDS011;41089;51.448;6.604;2023-01-04T10:59:07;2.28;;;1.15;;
55220;SDS011;41089;51.448;6.604;2023-01-04T11:05:17;1.92;;;0.70;;
55220;SDS011;41089;51.448;6.604;2023-01-04T11:11:42;1.90;;;1.33;;
55220;SDS011;41089;51.448;6.604;2023-01-04T11:17:44;3.35;;;1.00;;
55220;SDS011;41089;51.448;6.604;2023-01-04T11:23:45;5.03;;;1.38;;
55220;SDS011;41089;51.448;6.604;2023-01-04T11:29:50;4.75;;;1.05;;
55220;SDS011;41089;51.448;6.604;2023-01-04T11:35:57;3.17;;;1.67;;
55220;SDS011;41089;51.448;6.604;2023-01-04T11:42:02;2.60;;;1.10;;
55220;SDS011;41089;51.448;6.604;2023-01-04T11:48:03;2.50;;;1.23;;
55220;SDS011;41089;51.448;6.604;2023-01-04T12:00:15;2.20;;;1.20;;
55220;SDS011;41089;51.448;6.604;2023-01-04T12:06:33;3.22;;;1.05;;
55220;SDS011;41089;51.448;6.604;2023-01-04T12:12:37;3.88;;;1.27;;
55220;SDS011;41089;51.448;6.604;2023-01-04T12:18:39;2.80;;;1.15;;
55220;SDS011;41089;51.448;6.604;2023-01-04T12:24:41;3.15;;;1.55;;
55220;SDS011;41089;51.448;6.604;2023-01-04T12:30:44;2.25;;;0.90;;
55220;SDS011;41089;51.448;6.604;2023-01-04T12:36:52;2.33;;;1.13;;
55220;SDS011;41089;51.448;6.604;2023-01-04T13:01:26;1.23;;;0.80;;
55220;SDS011;41089;51.448;6.604;2023-01-04T13:07:31;0.93;;;0.80;;
55220;SDS011;41089;51.448;6.604;2023-01-04T13:13:50;0.70;;;0.70;;
55220;SDS011;41089;51.448;6.604;2023-01-04T13:19:54;2.03;;;0.80;;
55220;SDS011;41089;51.448;6.604;2023-01-04T13:25:55;1.55;;;1.00;;
55220;SDS011;41089;51.448;6.604;2023-01-04T13:38:01;1.40;;;0.93;;
55220;SDS011;41089;51.448;6.604;2023-01-04T13:44:12;1.08;;;0.70;;
55220;SDS011;41089;51.448;6.604;2023-01-04T13:57:08;0.43;;;0.43;;
55220;SDS011;41089;51.448;6.604;2023-01-04T14:15:20;1.08;;;0.82;;
55220;SDS011;41089;51.448;6.604;2023-01-04T14:21:31;2.40;;;1.10;;
55220;SDS011;41089;51.448;6.604;2023-01-04T14:39:39;1.10;;;0.88;;
55220;SDS011;41089;51.448;6.604;2023-01-04T14:45:40;2.47;;;0.93;;
55220;SDS011;41089;51.448;6.604;2023-01-04T14:51:42;3.83;;;0.90;;
55220;SDS011;41089;51.448;6.604;2023-01-04T14:57:43;1.48;;;0.93;;
55220;SDS011;41089;51.448;6.604;2023-01-04T15:03:44;0.73;;;0.70;;
55220;SDS011;41089;51.448;6.604;2023-01-04T15:09:44;2.97;;;0.80;;
55220;SDS011;41089;51.448;6.604;2023-01-04T15:15:45;2.37;;;1.60;;
55220;SDS011;41089;51.448;6.604;2023-01-04T15:21:45;1.63;;;1.15;;
55220;SDS011;41089;51.448;6.604;2023-01-04T15:27:46;3.65;;;2.63;;
55220;SDS011;41089;51.448;6.604;2023-01-04T15:33:46;3.58;;;1.95;;
55220;SDS011;41089;51.448;6.604;2023-01-04T15:39:47;3.30;;;1.70;;
55220;SDS011;41089;51.448;6.604;2023-01-04T15:45:47;5.18;;;1.40;;
55220;SDS011;41089;51.448;6.604;2023-01-04T15:51:49;5.00;;;1.40;;
55220;SDS011;41089;51.448;6.604;2023-01-04T15:57:50;3.85;;;1.05;;
55220;SDS011;41089;51.448;6.604;2023-01-04T16:03:50;3.33;;;1.07;;
55220;SDS011;41089;51.448;6.604;2023-01-04T16:09:51;5.53;;;1.90;;
55220;SDS011;41089;51.448;6.604;2023-01-04T16:15:52;7.55;;;1.75;;
55220;SDS011;41089;51.448;6.604;2023-01-04T16:21:53;6.97;;;1.92;;
55220;SDS011;41089;51.448;6.604;2023-01-04T16:27:54;4.97;;;1.67;;
55220;SDS011;41089;51.448;6.604;2023-01-04T16:33:54;7.03;;;2.10;;
55220;SDS011;41089;51.448;6.604;2023-01-04T16:39:54;5.37;;;1.97;;
55220;SDS011;41089;51.448;6.604;2023-01-04T16:46:40;3.40;;;1.58;;
55220;SDS011;41089;51.448;6.604;2023-01-04T16:58:16;3.97;;;2.00;;
55220;SDS011;41089;51.448;6.604;2023-01-04T17:04:17;5.38;;;1.35;;
55220;SDS011;41089;51.448;6.604;2023-01-04T17:10:18;5.30;;;1.40;;
55220;SDS011;41089;51.448;6.604;2023-01-04T17:16:18;4.43;;;1.20;;
55220;SDS011;41089;51.448;6.604;2023-01-04T17:22:22;4.82;;;1.42;;
55220;SDS011;41089;51.448;6.604;2023-01-04T17:28:23;5.23;;;1.57;;
55220;SDS011;41089;51.448;6.604;2023-01-04T17:34:23;7.43;;;2.15;;
55220;SDS011;41089;51.448;6.604;2023-01-04T17:40:23;6.68;;;2.05;;
55220;SDS011;41089;51.448;6.604;2023-01-04T17:46:24;9.63;;;2.80;;
55220;SDS011;41089;51.448;6.604;2023-01-04T17:52:26;15.02;;;2.53;;
55220;SDS011;41089;51.448;6.604;2023-01-04T17:58:27;12.17;;;3.17;;
55220;SDS011;41089;51.448;6.604;2023-01-04T18:04:27;17.70;;;2.90;;
55220;SDS011;41089;51.448;6.604;2023-01-04T18:10:27;13.13;;;4.32;;
55220;SDS011;41089;51.448;6.604;2023-01-04T18:16:28;15.95;;;3.85;;
55220;SDS011;41089;51.448;6.604;2023-01-04T18:22:28;18.63;;;4.65;;
55220;SDS011;41089;51.448;6.604;2023-01-04T18:28:31;17.10;;;4.28;;
55220;SDS011;41089;51.448;6.604;2023-01-04T18:34:34;21.77;;;4.63;;
55220;SDS011;41089;51.448;6.604;2023-01-04T18:40:36;22.30;;;4.90;;
55220;SDS011;41089;51.448;6.604;2023-01-04T18:46:37;17.23;;;4.22;;
55220;SDS011;41089;51.448;6.604;2023-01-04T18:52:39;17.52;;;5.45;;
55220;SDS011;41089;51.448;6.604;2023-01-04T18:58:40;26.30;;;5.20;;
55220;SDS011;41089;51.448;6.604;2023-01-04T19:04:47;21.43;;;4.67;;
55220;SDS011;41089;51.448;6.604;2023-01-04T19:11:05;30.13;;;5.65;;
55220;SDS011;41089;51.448;6.604;2023-01-04T19:17:07;19.80;;;4.50;;
55220;SDS011;41089;51.448;6.604;2023-01-04T19:23:08;20.90;;;5.70;;
55220;SDS011;41089;51.448;6.604;2023-01-04T19:29:10;23.95;;;4.95;;
55220;SDS011;41089;51.448;6.604;2023-01-04T19:35:10;20.92;;;5.85;;
55220;SDS011;41089;51.448;6.604;2023-01-04T19:41:15;22.70;;;5.40;;
55220;SDS011;41089;51.448;6.604;2023-01-04T19:47:20;26.75;;;5.13;;
55220;SDS011;41089;51.448;6.604;2023-01-04T19:53:21;21.30;;;5.17;;
55220;SDS011;41089;51.448;6.604;2023-01-04T19:59:21;25.60;;;5.65;;
55220;SDS011;41089;51.448;6.604;2023-01-04T20:05:22;26.02;;;5.70;;
55220;SDS011;41089;51.448;6.604;2023-01-04T20:11:23;29.00;;;5.97;;
55220;SDS011;41089;51.448;6.604;2023-01-04T20:17:23;24.40;;;5.63;;
55220;SDS011;41089;51.448;6.604;2023-01-04T20:23:24;29.37;;;5.30;;
55220;SDS011;41089;51.448;6.604;2023-01-04T20:29:25;19.58;;;5.40;;
55220;SDS011;41089;51.448;6.604;2023-01-04T20:35:25;27.50;;;6.40;;
55220;SDS011;41089;51.448;6.604;2023-01-04T20:41:26;23.35;;;4.82;;
55220;SDS011;41089;51.448;6.604;2023-01-04T20:47:35;21.52;;;5.45;;
55220;SDS011;41089;51.448;6.604;2023-01-04T20:53:37;22.63;;;4.85;;
55220;SDS011;41089;51.448;6.604;2023-01-04T20:59:40;20.33;;;5.70;;
55220;SDS011;41089;51.448;6.604;2023-01-04T21:05:42;26.23;;;6.85;;
55220;SDS011;41089;51.448;6.604;2023-01-04T21:11:43;22.60;;;5.45;;
55220;SDS011;41089;51.448;6.604;2023-01-04T21:17:44;24.85;;;6.20;;
55220;SDS011;41089;51.448;6.604;2023-01-04T21:23:46;22.00;;;5.18;;
55220;SDS011;41089;51.448;6.604;2023-01-04T21:29:47;28.17;;;5.88;;
55220;SDS011;41089;51.448;6.604;2023-01-04T21:35:47;21.67;;;4.40;;
55220;SDS011;41089;51.448;6.604;2023-01-04T21:41:48;26.87;;;6.17;;
55220;SDS011;41089;51.448;6.604;2023-01-04T21:47:51;24.20;;;5.47;;
55220;SDS011;41089;51.448;6.604;2023-01-04T21:53:53;28.13;;;6.10;;
55220;SDS011;41089;51.448;6.604;2023-01-04T21:59:54;20.67;;;5.53;;
55220;SDS011;41089;51.448;6.604;2023-01-04T22:05:59;28.90;;;6.60;;
55220;SDS011;41089;51.448;6.604;2023-01-04T22:12:00;33.65;;;6.30;;
55220;SDS011;41089;51.448;6.604;2023-01-04T22:18:08;27.05;;;5.80;;
55220;SDS011;41089;51.448;6.604;2023-01-04T22:24:16;25.77;;;6.10;;
55220;SDS011;41089;51.448;6.604;2023-01-04T22:30:18;26.77;;;5.72;;
55220;SDS011;41089;51.448;6.604;2023-01-04T22:36:19;22.80;;;5.57;;
55220;SDS011;41089;51.448;6.604;2023-01-04T22:42:19;25.30;;;5.45;;
55220;SDS011;41089;51.448;6.604;2023-01-04T22:48:20;24.27;;;5.72;;
55220;SDS011;41089;51.448;6.604;2023-01-04T22:54:20;29.33;;;5.73;;
55220;SDS011;41089;51.448;6.604;2023-01-04T23:00:20;26.05;;;5.70;;
55220;SDS011;41089;51.448;6.604;2023-01-04T23:06:22;23.87;;;5.10;;
55220;SDS011;41089;51.448;6.604;2023-01-04T23:12:23;24.05;;;5.43;;
55220;SDS011;41089;51.448;6.604;2023-01-04T23:24:29;28.98;;;5.85;;
55220;SDS011;41089;51.448;6.604;2023-01-04T23:30:29;25.17;;;5.78;;
55220;SDS011;41089;51.448;6.604;2023-01-04T23:36:31;19.43;;;4.97;;
55220;SDS011;41089;51.448;6.604;2023-01-04T23:42:34;28.17;;;6.45;;
55220;SDS011;41089;51.448;6.604;2023-01-04T23:48:38;30.55;;;6.88;;
55220;SDS011;41089;51.448;6.604;2023-01-04T23:54:39;23.58;;;5.78;;
